Time;durP1;ratioP1;P1;durP2;ratioP2;P2;SDS_P1;SDS_P2;PMS_P1;PMS_P2;Temp;Humidity;BMP_temperature;BMP_pressure;BME280_temperature;BME280_humidity;BME280_pressure;Samples;Min_cycle;Max_cycle;Signal;HPM_P1;HPM_P2
2022/04/08 04:01:37;;;;;;;3.73;1.33;;;4.60;96.30;;;;;;5407053;23;20495;-81
2022/04/08 04:04:06;;;;;;;1.40;0.90;;;4.60;96.30;;;;;;4977349;28;20505;-78
2022/04/08 04:06:32;;;;;;;1.90;0.90;;;4.60;96.30;;;;;;4960286;28;20189;-80
2022/04/08 04:08:58;;;;;;;2.87;1.20;;;4.70;96.30;;;;;;4976884;28;20493;-79
2022/04/08 04:11:24;;;;;;;1.40;1.10;;;4.70;96.30;;;;;;4954085;28;20611;-79
2022/04/08 04:13:49;;;;;;;2.70;1.03;;;4.70;96.30;;;;;;4957963;28;20418;-80
2022/04/08 04:16:15;;;;;;;4.40;0.90;;;4.80;96.30;;;;;;4994409;23;20236;-76
2022/04/08 04:18:40;;;;;;;2.63;1.30;;;4.70;96.30;;;;;;4992020;28;20315;-75
2022/04/08 04:21:06;;;;;;;3.37;1.10;;;4.60;96.30;;;;;;5002108;28;20192;-76
2022/04/08 04:23:34;;;;;;;5.87;1.00;;;4.60;96.30;;;;;;5012333;28;20223;-76
2022/04/08 04:26:01;;;;;;;3.13;1.70;;;4.60;96.30;;;;;;5015630;28;20197;-76
2022/04/08 04:28:30;;;;;;;4.47;1.70;;;4.60;96.30;;;;;;5015673;28;20430;-76
2022/04/08 04:30:56;;;;;;;4.13;1.37;;;4.50;96.30;;;;;;5016290;28;20414;-76
2022/04/08 04:33:22;;;;;;;3.17;1.37;;;4.60;96.30;;;;;;5016104;28;20412;-76
2022/04/08 04:35:47;;;;;;;7.80;1.20;;;4.60;96.30;;;;;;5015922;28;20456;-76
2022/04/08 04:38:13;;;;;;;7.03;1.50;;;4.50;96.30;;;;;;5016049;28;20596;-76
2022/04/08 04:40:38;;;;;;;5.10;1.33;;;4.50;96.30;;;;;;5016168;28;20169;-76
2022/04/08 04:43:04;;;;;;;2.53;1.10;;;4.50;96.30;;;;;;5015975;28;20243;-76
2022/04/08 04:45:29;;;;;;;3.47;1.17;;;4.50;96.30;;;;;;4997402;28;20217;-78
2022/04/08 04:47:55;;;;;;;5.93;1.50;;;4.40;96.30;;;;;;4995561;28;20193;-76
2022/04/08 04:50:21;;;;;;;3.13;1.07;;;4.30;96.30;;;;;;4995129;28;20213;-76
2022/04/08 04:52:48;;;;;;;5.50;1.47;;;4.50;96.30;;;;;;4978475;28;20170;-76
2022/04/08 04:55:13;;;;;;;3.23;1.50;;;4.40;96.30;;;;;;4978488;28;20480;-76
2022/04/08 04:57:40;;;;;;;1.77;1.10;;;4.50;96.30;;;;;;4995886;28;20408;-77
2022/04/08 05:00:09;;;;;;;4.43;1.50;;;4.40;96.30;;;;;;4978978;28;20177;-76
2022/04/08 05:02:35;;;;;;;3.60;1.30;;;4.40;96.30;;;;;;4999100;28;20412;-75
2022/04/08 05:05:00;;;;;;;2.73;1.07;;;4.50;96.30;;;;;;4996097;28;20417;-76
2022/04/08 05:07:26;;;;;;;2.97;1.10;;;4.50;96.30;;;;;;4978229;28;20197;-75
2022/04/08 05:09:51;;;;;;;5.17;1.60;;;4.50;96.30;;;;;;4995876;28;20228;-75
2022/04/08 05:12:17;;;;;;;4.90;1.47;;;4.50;96.30;;;;;;4995879;28;20195;-76
2022/04/08 05:14:42;;;;;;;3.83;1.10;;;4.40;96.30;;;;;;4995777;28;20226;-76
2022/04/08 05:17:08;;;;;;;4.90;1.30;;;4.50;96.30;;;;;;4995466;28;20209;-75
2022/04/08 05:19:33;;;;;;;1.80;1.30;;;4.50;96.30;;;;;;4995479;28;20181;-75
2022/04/08 05:21:59;;;;;;;4.03;1.20;;;4.50;96.30;;;;;;5009369;28;20177;-77
2022/04/08 05:24:24;;;;;;;1.83;1.20;;;4.50;96.30;;;;;;5015280;28;20529;-75
2022/04/08 05:26:50;;;;;;;3.10;1.30;;;4.50;96.30;;;;;;5015238;28;20224;-75
2022/04/08 05:29:15;;;;;;;3.53;1.23;;;4.60;96.30;;;;;;5015098;28;20177;-77
2022/04/08 05:31:40;;;;;;;3.10;1.17;;;4.70;96.30;;;;;;5015046;28;20528;-75
2022/04/08 05:34:06;;;;;;;3.87;1.10;;;4.70;96.30;;;;;;5014982;28;20232;-75
2022/04/08 05:36:32;;;;;;;3.53;1.37;;;4.70;96.30;;;;;;5014190;28;20628;-79
2022/04/08 05:38:57;;;;;;;2.53;0.97;;;4.70;96.30;;;;;;5004769;28;20178;-75
2022/04/08 05:41:23;;;;;;;1.80;0.90;;;4.80;96.30;;;;;;4991063;28;20184;-75
2022/04/08 05:43:48;;;;;;;1.20;1.10;;;4.70;96.30;;;;;;4993749;28;20652;-75
2022/04/08 05:46:14;;;;;;;1.20;0.87;;;4.70;96.30;;;;;;4994277;28;20664;-76
2022/04/08 05:48:40;;;;;;;1.50;0.90;;;4.80;96.30;;;;;;4994963;28;20177;-76
2022/04/08 05:51:06;;;;;;;4.93;1.60;;;4.80;96.30;;;;;;4981024;28;20885;-76
2022/04/08 05:53:32;;;;;;;2.23;1.00;;;4.90;96.30;;;;;;5014794;28;20499;-75
2022/04/08 05:55:58;;;;;;;3.50;1.20;;;4.80;96.30;;;;;;5011486;28;20302;-75
2022/04/08 05:58:24;;;;;;;5.63;1.80;;;4.80;96.30;;;;;;5013336;28;20552;-75
2022/04/08 06:00:50;;;;;;;3.43;1.10;;;4.90;96.30;;;;;;4995027;28;21172;-75
2022/04/08 06:03:16;;;;;;;2.20;1.57;;;4.90;96.30;;;;;;4995002;28;20499;-76
2022/04/08 06:05:42;;;;;;;2.63;1.17;;;5.10;96.30;;;;;;4994825;28;20201;-77
2022/04/08 06:08:07;;;;;;;1.63;0.93;;;5.10;96.30;;;;;;4982811;28;20664;-75
2022/04/08 06:10:33;;;;;;;2.60;1.20;;;5.30;96.30;;;;;;4977623;28;20185;-75
2022/04/08 06:12:59;;;;;;;2.40;1.30;;;5.30;96.30;;;;;;4995046;28;20539;-76
2022/04/08 06:15:27;;;;;;;2.93;0.90;;;5.40;96.30;;;;;;4994502;28;20180;-74
2022/04/08 06:17:57;;;;;;;2.20;0.90;;;5.50;96.30;;;;;;4997104;28;20213;-74
2022/04/08 06:20:23;;;;;;;4.63;1.17;;;5.60;96.30;;;;;;5014179;28;20401;-75
2022/04/08 06:22:50;;;;;;;2.37;1.00;;;5.60;96.30;;;;;;5014406;28;20404;-75
2022/04/08 06:25:18;;;;;;;1.60;1.03;;;5.50;96.30;;;;;;5014229;28;20531;-75
2022/04/08 06:27:47;;;;;;;3.63;1.27;;;5.50;96.30;;;;;;5013942;28;20479;-75
2022/04/08 06:30:14;;;;;;;5.80;1.27;;;5.40;96.30;;;;;;5013929;28;20554;-74
2022/04/08 06:32:42;;;;;;;2.70;1.00;;;5.60;96.30;;;;;;4996442;28;20799;-75
2022/04/08 06:35:08;;;;;;;3.17;1.20;;;5.60;96.30;;;;;;5013874;28;20436;-75
2022/04/08 06:37:34;;;;;;;2.13;1.00;;;5.70;96.30;;;;;;4995986;28;20483;-75
2022/04/08 06:40:08;;;;;;;2.40;1.57;;;5.70;96.30;;;;;;5013859;28;20625;-75
2022/04/08 06:42:34;;;;;;;2.50;1.10;;;5.60;96.30;;;;;;4996335;28;20732;-75
2022/04/08 06:45:00;;;;;;;3.37;1.27;;;5.90;96.30;;;;;;5013755;28;20510;-75
2022/04/08 06:47:26;;;;;;;1.40;1.07;;;6.40;96.30;;;;;;5013072;28;20193;-75
2022/04/08 06:49:51;;;;;;;1.30;0.70;;;6.40;96.30;;;;;;5013109;28;20430;-75
2022/04/08 06:52:17;;;;;;;1.53;1.07;;;6.20;96.30;;;;;;5013831;28;20177;-75
2022/04/08 06:54:42;;;;;;;2.40;1.00;;;6.00;96.30;;;;;;5014331;28;20185;-75
2022/04/08 06:57:08;;;;;;;1.83;0.90;;;5.90;96.30;;;;;;5013421;28;20204;-75
2022/04/08 06:59:35;;;;;;;3.43;1.00;;;5.80;96.30;;;;;;5012753;28;20173;-74
2022/04/08 07:02:00;;;;;;;2.47;0.93;;;5.60;96.30;;;;;;5013473;28;20238;-75
2022/04/08 07:04:26;;;;;;;3.80;1.10;;;5.60;96.30;;;;;;5013526;28;20942;-75
2022/04/08 07:06:52;;;;;;;4.17;1.20;;;5.70;96.30;;;;;;5013540;28;20189;-75
2022/04/08 07:09:18;;;;;;;4.80;1.27;;;5.70;96.30;;;;;;5013632;28;20220;-75
2022/04/08 07:11:43;;;;;;;1.67;0.80;;;5.70;96.30;;;;;;5019367;28;20907;-75
2022/04/08 07:14:09;;;;;;;1.53;0.93;;;5.70;96.30;;;;;;5013854;28;20188;-74
2022/04/08 07:16:34;;;;;;;1.53;1.00;;;5.60;96.30;;;;;;5012845;28;20719;-74
2022/04/08 07:19:00;;;;;;;1.30;1.03;;;5.60;96.30;;;;;;5013010;28;20181;-74
2022/04/08 07:21:26;;;;;;;3.00;1.20;;;5.60;96.30;;;;;;5013073;28;20239;-74
2022/04/08 07:23:51;;;;;;;2.23;1.20;;;5.60;96.30;;;;;;5013044;28;20169;-74
2022/04/08 07:26:21;;;;;;;1.80;0.80;;;5.60;96.30;;;;;;5012889;28;20440;-74
2022/04/08 07:28:47;;;;;;;1.33;0.80;;;5.80;96.30;;;;;;4995041;28;20633;-74
2022/04/08 07:31:13;;;;;;;1.30;0.90;;;5.90;96.30;;;;;;5004299;28;20870;-74
2022/04/08 07:33:39;;;;;;;2.03;1.00;;;6.20;96.30;;;;;;5012913;28;20440;-74
2022/04/08 07:36:05;;;;;;;2.50;1.13;;;6.40;96.30;;;;;;5012588;28;20494;-74
2022/04/08 07:38:31;;;;;;;1.57;0.80;;;6.80;96.30;;;;;;5012732;28;20541;-74
2022/04/08 07:41:00;;;;;;;1.20;0.90;;;6.60;96.30;;;;;;5012670;28;20416;-74
2022/04/08 07:43:25;;;;;;;1.80;0.90;;;6.80;96.30;;;;;;4999125;28;20178;-74
2022/04/08 07:45:51;;;;;;;1.17;0.80;;;6.80;96.30;;;;;;4992922;28;20441;-74
2022/04/08 07:48:16;;;;;;;4.57;1.27;;;6.60;96.30;;;;;;4975491;28;20228;-75
2022/04/08 07:50:42;;;;;;;1.67;0.80;;;6.60;96.30;;;;;;4993063;28;20556;-74
2022/04/08 07:53:08;;;;;;;1.10;0.73;;;6.60;96.30;;;;;;4992960;28;20301;-74
2022/04/08 07:55:34;;;;;;;1.40;0.87;;;6.60;96.30;;;;;;4992804;28;20205;-75
2022/04/08 07:57:59;;;;;;;3.53;1.20;;;6.40;96.30;;;;;;4993796;28;20271;-74
2022/04/08 08:00:27;;;;;;;3.30;0.87;;;6.30;96.30;;;;;;5012256;28;20201;-74
2022/04/08 08:02:53;;;;;;;1.10;0.80;;;6.40;96.30;;;;;;5012439;28;20259;-74
2022/04/08 08:05:20;;;;;;;1.63;0.90;;;6.30;96.30;;;;;;5012409;28;20909;-74
2022/04/08 08:07:51;;;;;;;1.73;1.17;;;6.20;96.30;;;;;;5012153;28;20172;-74
2022/04/08 08:10:22;;;;;;;1.00;0.83;;;6.30;96.30;;;;;;5012828;28;20475;-75
2022/04/08 08:12:48;;;;;;;2.13;0.80;;;6.60;96.30;;;;;;5012325;28;20923;-74
2022/04/08 08:15:15;;;;;;;3.13;1.00;;;6.60;96.30;;;;;;5012180;28;20892;-74
2022/04/08 08:17:41;;;;;;;1.60;0.80;;;6.60;96.30;;;;;;4994458;28;20894;-74
2022/04/08 08:20:08;;;;;;;1.23;0.90;;;6.60;96.30;;;;;;5012270;28;20985;-74
2022/04/08 08:22:34;;;;;;;9.83;2.93;;;6.70;96.30;;;;;;5012221;28;20400;-75
2022/04/08 08:25:00;;;;;;;1.50;0.80;;;6.90;96.30;;;;;;5012182;28;20458;-75
2022/04/08 08:27:25;;;;;;;1.77;1.10;;;7.10;96.30;;;;;;5011892;28;20424;-75
2022/04/08 08:29:51;;;;;;;2.03;0.90;;;6.80;96.30;;;;;;5012203;28;20570;-75
2022/04/08 08:32:16;;;;;;;1.83;1.00;;;7.00;96.30;;;;;;5012141;28;20176;-74
2022/04/08 08:34:42;;;;;;;2.23;0.80;;;7.20;96.30;;;;;;5012137;28;20706;-74
2022/04/08 08:37:08;;;;;;;1.30;1.03;;;7.40;96.30;;;;;;4987806;28;20237;-74
2022/04/08 08:39:33;;;;;;;1.43;0.90;;;7.10;96.30;;;;;;4991824;28;20178;-74
2022/04/08 08:41:59;;;;;;;2.07;1.10;;;7.40;96.30;;;;;;4992386;28;20228;-74
2022/04/08 08:44:24;;;;;;;2.13;0.90;;;7.40;96.30;;;;;;4992260;28;20212;-75
2022/04/08 08:46:52;;;;;;;1.67;1.00;;;7.20;96.30;;;;;;4992232;28;20213;-75
2022/04/08 08:49:19;;;;;;;4.60;1.10;;;7.30;96.30;;;;;;4991612;28;20185;-75
2022/04/08 08:51:51;;;;;;;1.73;1.10;;;7.10;96.30;;;;;;4992251;28;20421;-75
2022/04/08 08:54:17;;;;;;;1.90;1.43;;;7.40;96.30;;;;;;4992211;28;20420;-75
2022/04/08 08:56:43;;;;;;;1.20;0.93;;;7.50;96.30;;;;;;4991932;28;20473;-75
2022/04/08 08:59:10;;;;;;;3.30;1.20;;;7.80;96.30;;;;;;4991754;28;20409;-75
2022/04/08 09:01:35;;;;;;;2.70;1.20;;;8.10;96.30;;;;;;4992256;28;20495;-75
2022/04/08 09:04:01;;;;;;;2.10;1.07;;;7.90;96.30;;;;;;4992176;28;20507;-75
2022/04/08 09:06:26;;;;;;;2.40;1.20;;;7.60;96.30;;;;;;4974678;28;20197;-75
2022/04/08 09:08:59;;;;;;;4.83;1.17;;;7.40;96.30;;;;;;4991953;28;20650;-74
2022/04/08 09:11:26;;;;;;;4.40;1.30;;;7.60;96.30;;;;;;4993058;28;20177;-75
2022/04/08 09:13:51;;;;;;;1.53;1.00;;;7.80;96.30;;;;;;4995793;28;20900;-75
2022/04/08 09:16:30;;;;;;;1.80;1.07;;;8.10;96.30;;;;;;4995593;28;20466;-75
2022/04/08 09:18:56;;;;;;;1.70;1.00;;;8.30;96.30;;;;;;4995484;28;20236;-75
2022/04/08 09:21:23;;;;;;;4.43;1.10;;;9.10;96.30;;;;;;4995623;28;20407;-75
2022/04/08 09:23:48;;;;;;;2.63;0.90;;;10.20;96.30;;;;;;4995682;28;20411;-75
2022/04/08 09:26:14;;;;;;;3.10;1.13;;;10.10;95.10;;;;;;4995703;28;20792;-75
2022/04/08 09:28:41;;;;;;;2.40;1.33;;;9.10;95.60;;;;;;4995451;28;20169;-75
2022/04/08 09:31:16;;;;;;;3.00;1.10;;;8.50;96.30;;;;;;4995669;28;20772;-75
2022/04/08 09:33:55;;;;;;;1.10;0.83;;;8.30;96.30;;;;;;4995414;28;20404;-75
2022/04/08 09:36:31;;;;;;;1.00;0.90;;;8.10;96.30;;;;;;4995282;28;20452;-75
2022/04/08 09:38:57;;;;;;;3.33;1.23;;;8.10;96.30;;;;;;4995055;28;20401;-75
2022/04/08 09:41:40;;;;;;;2.43;1.30;;;8.70;96.30;;;;;;4995174;28;20405;-75
2022/04/08 09:44:07;;;;;;;3.47;0.93;;;9.20;96.30;;;;;;4995669;28;20412;-75
2022/04/08 09:46:33;;;;;;;1.60;1.10;;;9.30;96.30;;;;;;4995141;28;20437;-75
2022/04/08 09:48:59;;;;;;;2.80;1.07;;;9.00;96.30;;;;;;4994908;28;20424;-75
2022/04/08 09:51:27;;;;;;;1.30;0.83;;;8.70;96.30;;;;;;4995034;28;20401;-75
2022/04/08 09:53:58;;;;;;;1.20;0.80;;;8.60;96.30;;;;;;4995119;28;20189;-75
2022/04/08 09:56:27;;;;;;;2.80;1.10;;;8.70;96.30;;;;;;4994757;28;20548;-75
2022/04/08 09:59:12;;;;;;;2.63;1.30;;;9.20;96.30;;;;;;4994724;28;20436;-75
2022/04/08 10:01:39;;;;;;;1.30;1.07;;;9.20;96.30;;;;;;4994950;28;20409;-75
2022/04/08 10:04:05;;;;;;;2.77;1.20;;;8.70;96.30;;;;;;4994852;28;20405;-75
2022/04/08 10:06:31;;;;;;;3.37;1.47;;;8.80;96.30;;;;;;4994781;28;20475;-74
2022/04/08 10:08:58;;;;;;;2.60;1.20;;;9.00;96.30;;;;;;4994612;28;20483;-75
2022/04/08 10:11:33;;;;;;;1.70;1.10;;;9.40;96.30;;;;;;4994832;28;20254;-75
2022/04/08 10:14:10;;;;;;;1.90;1.37;;;9.60;96.30;;;;;;4994768;28;20400;-75
2022/04/08 10:16:39;;;;;;;3.30;1.07;;;9.60;96.20;;;;;;5018412;23;20500;-80
2022/04/08 10:19:07;;;;;;;1.20;1.10;;;9.40;96.20;;;;;;4999577;28;21060;-82
2022/04/08 10:21:40;;;;;;;2.33;1.07;;;9.00;96.30;;;;;;4982789;28;20497;-82
2022/04/08 10:24:09;;;;;;;2.87;1.00;;;8.50;96.30;;;;;;4982327;28;20412;-81
2022/04/08 10:26:35;;;;;;;6.20;1.20;;;8.70;96.30;;;;;;4981129;28;20525;-82
2022/04/08 10:29:10;;;;;;;6.10;1.30;;;8.40;96.30;;;;;;4980780;28;20441;-82
2022/04/08 10:31:35;;;;;;;2.07;1.30;;;8.60;96.30;;;;;;4980603;28;20274;-80
2022/04/08 10:34:02;;;;;;;2.80;1.30;;;8.50;96.30;;;;;;4981020;28;20459;-82
2022/04/08 10:36:39;;;;;;;1.40;1.20;;;8.60;96.30;;;;;;4981155;28;20201;-82
2022/04/08 10:39:12;;;;;;;2.33;1.20;;;8.60;96.30;;;;;;4997497;28;20385;-82
2022/04/08 10:41:56;;;;;;;1.30;1.00;;;8.70;96.30;;;;;;4999339;28;20836;-81
2022/04/08 10:44:36;;;;;;;1.30;1.07;;;8.60;96.30;;;;;;4981671;28;21076;-81
2022/04/08 10:47:10;;;;;;;2.87;1.37;;;8.60;96.30;;;;;;4981018;28;20479;-82
2022/04/08 10:50:04;;;;;;;2.07;1.10;;;8.90;96.30;;;;;;4979874;28;20622;-81
2022/04/08 10:52:38;;;;;;;2.70;1.20;;;9.30;96.30;;;;;;4998061;28;20416;-82
2022/04/08 10:55:09;;;;;;;2.17;1.00;;;9.50;96.30;;;;;;4998174;28;20451;-82
2022/04/08 10:57:44;;;;;;;4.87;1.23;;;9.70;96.30;;;;;;4997509;28;20524;-81
2022/04/08 11:00:17;;;;;;;1.97;1.10;;;9.40;96.30;;;;;;4980459;28;20401;-82
2022/04/08 11:02:43;;;;;;;5.67;1.27;;;9.70;96.30;;;;;;4997408;28;21035;-82
2022/04/08 11:05:11;;;;;;;1.67;1.20;;;9.40;96.30;;;;;;4960710;28;20418;-82
2022/04/08 11:07:44;;;;;;;2.23;1.13;;;9.50;96.30;;;;;;4959212;28;20444;-82
2022/04/08 11:10:12;;;;;;;2.50;1.20;;;9.40;96.00;;;;;;4960602;28;20418;-82
2022/04/08 11:12:51;;;;;;;4.93;1.50;;;9.20;94.50;;;;;;4961128;28;20422;-82
2022/04/08 11:15:27;;;;;;;2.70;1.53;;;9.30;96.30;;;;;;4960051;28;20417;-82
2022/04/08 11:17:53;;;;;;;1.93;1.20;;;9.30;96.30;;;;;;4960500;28;20788;-82
2022/04/08 11:20:21;;;;;;;2.10;1.13;;;9.10;96.30;;;;;;4978320;28;20398;-82
2022/04/08 11:22:52;;;;;;;1.57;1.30;;;8.80;96.30;;;;;;4960254;28;20185;-83
2022/04/08 11:25:29;;;;;;;3.83;1.30;;;8.90;96.30;;;;;;4977599;28;20406;-81
2022/04/08 11:28:05;;;;;;;8.33;1.50;;;9.00;96.30;;;;;;4960080;28;20414;-82
2022/04/08 11:30:34;;;;;;;5.13;1.57;;;8.90;96.30;;;;;;4977015;28;20444;-82
2022/04/08 11:33:00;;;;;;;4.47;1.80;;;8.80;96.30;;;;;;4957072;28;20422;-82
2022/04/08 11:35:31;;;;;;;1.40;1.23;;;8.70;96.30;;;;;;4973659;28;20433;-82
2022/04/08 11:37:57;;;;;;;3.17;1.00;;;8.90;96.30;;;;;;4956542;28;20437;-83
2022/04/08 11:40:23;;;;;;;3.33;1.47;;;8.80;96.30;;;;;;4972875;28;20503;-84
2022/04/08 11:42:48;;;;;;;2.53;1.20;;;8.90;96.30;;;;;;4975972;28;20492;-84
2022/04/08 11:45:16;;;;;;;2.90;1.33;;;8.80;96.30;;;;;;4972975;28;20221;-82
2022/04/08 11:47:49;;;;;;;4.80;1.13;;;8.80;96.00;;;;;;4957030;28;20178;-84
2022/04/08 11:50:24;;;;;;;4.80;1.53;;;9.00;96.30;;;;;;4956966;28;20886;-83
2022/04/08 11:52:58;;;;;;;4.40;1.53;;;9.00;96.30;;;;;;4956966;28;20422;-84
2022/04/08 11:55:25;;;;;;;3.23;1.10;;;9.10;96.30;;;;;;4956692;28;20476;-84
2022/04/08 11:57:51;;;;;;;2.43;1.40;;;9.00;96.30;;;;;;4973902;28;20425;-83
2022/04/08 12:00:22;;;;;;;4.00;1.20;;;8.50;96.30;;;;;;4974398;28;20426;-83
2022/04/08 12:02:48;;;;;;;3.00;1.43;;;8.30;96.30;;;;;;4957185;28;20433;-84
2022/04/08 12:05:19;;;;;;;2.63;1.10;;;8.30;96.30;;;;;;4957115;28;20437;-83
2022/04/08 12:07:44;;;;;;;2.20;1.40;;;8.10;96.30;;;;;;4956870;28;20170;-83
2022/04/08 12:10:10;;;;;;;3.57;1.53;;;8.00;96.30;;;;;;4980600;28;20428;-84
2022/04/08 12:12:36;;;;;;;2.30;1.17;;;8.10;96.30;;;;;;4984088;28;20186;-83
2022/04/08 12:15:09;;;;;;;1.37;1.20;;;8.00;96.30;;;;;;4956915;28;20181;-85
2022/04/08 12:17:43;;;;;;;2.17;1.20;;;7.50;96.30;;;;;;4957148;28;20480;-85
2022/04/08 12:20:13;;;;;;;2.40;1.40;;;6.60;96.30;;;;;;4957793;28;20895;-85
2022/04/08 12:22:39;;;;;;;1.60;1.50;;;6.00;96.30;;;;;;4956552;28;20417;-85
2022/04/08 12:25:06;;;;;;;1.53;1.30;;;5.70;96.30;;;;;;4956522;28;20429;-84
2022/04/08 12:27:31;;;;;;;3.80;1.90;;;5.40;96.30;;;;;;4956264;28;20441;-82
2022/04/08 12:30:02;;;;;;;1.80;1.37;;;5.30;96.30;;;;;;4956421;28;20467;-83
2022/04/08 12:32:54;;;;;;;3.20;1.60;;;5.30;96.30;;;;;;4956486;28;20189;-81
2022/04/08 12:35:20;;;;;;;3.00;1.90;;;5.40;96.30;;;;;;4953744;28;20418;-82
2022/04/08 12:37:46;;;;;;;2.23;1.50;;;5.40;96.30;;;;;;4956264;28;20497;-82
2022/04/08 12:40:12;;;;;;;5.00;1.80;;;5.50;96.30;;;;;;4955924;28;20873;-81
2022/04/08 12:42:38;;;;;;;2.93;1.90;;;5.40;96.30;;;;;;4973465;28;20181;-83
2022/04/08 12:45:05;;;;;;;4.80;1.80;;;5.20;96.30;;;;;;4955893;28;20206;-81
2022/04/08 12:47:31;;;;;;;2.23;1.67;;;5.20;96.30;;;;;;4958133;28;20443;-82
2022/04/08 12:49:57;;;;;;;2.47;1.80;;;5.30;96.30;;;;;;4959595;28;20514;-83
2022/04/08 12:52:23;;;;;;;5.90;2.23;;;5.20;96.30;;;;;;4959539;28;20433;-82
2022/04/08 12:54:51;;;;;;;4.03;2.03;;;5.40;96.30;;;;;;4960819;28;20178;-83
2022/04/08 12:57:18;;;;;;;2.57;1.77;;;5.60;96.30;;;;;;4979549;28;20465;-83
2022/04/08 12:59:47;;;;;;;4.53;2.17;;;5.60;96.30;;;;;;4980599;28;20456;-83
2022/04/08 13:02:16;;;;;;;2.70;1.90;;;5.70;96.30;;;;;;4984412;28;20420;-84
2022/04/08 13:04:41;;;;;;;2.20;1.73;;;6.00;96.30;;;;;;4969113;28;20428;-83
2022/04/08 13:07:07;;;;;;;2.90;1.67;;;6.30;96.30;;;;;;4968754;28;20434;-82
2022/04/08 13:09:34;;;;;;;8.10;2.60;;;6.50;96.30;;;;;;4986541;28;20198;-83
2022/04/08 13:12:00;;;;;;;4.03;1.80;;;6.60;96.30;;;;;;4987016;28;20567;-83
2022/04/08 13:14:26;;;;;;;2.70;1.43;;;6.60;96.30;;;;;;4970911;28;20425;-84
2022/04/08 13:16:51;;;;;;;8.53;1.80;;;6.70;96.30;;;;;;4969060;28;20218;-85
2022/04/08 13:19:16;;;;;;;2.63;1.47;;;6.70;96.30;;;;;;4968615;28;20186;-84
2022/04/08 13:21:43;;;;;;;3.57;1.97;;;6.40;96.30;;;;;;4985484;28;20179;-84
2022/04/08 13:24:08;;;;;;;3.93;1.77;;;6.10;96.30;;;;;;4967994;28;20182;-84
2022/04/08 13:26:34;;;;;;;2.03;1.20;;;6.00;96.30;;;;;;4983819;28;20452;-84
2022/04/08 13:29:00;;;;;;;2.33;1.20;;;5.60;96.30;;;;;;4966205;28;20250;-82
2022/04/08 13:31:25;;;;;;;5.70;1.20;;;5.00;96.30;;;;;;4986893;28;20479;-81
2022/04/08 13:33:51;;;;;;;2.50;1.10;;;5.00;96.30;;;;;;4984387;28;20575;-82
2022/04/08 13:36:16;;;;;;;4.23;1.40;;;5.10;96.30;;;;;;4980573;28;20236;-82
2022/04/08 13:38:42;;;;;;;1.60;1.20;;;5.30;96.30;;;;;;4968193;28;20547;-82
2022/04/08 13:41:07;;;;;;;2.47;1.27;;;5.40;96.30;;;;;;4982015;28;20241;-84
2022/04/08 13:43:33;;;;;;;3.93;1.30;;;5.50;96.30;;;;;;5001967;28;20193;-83
2022/04/08 13:45:59;;;;;;;2.17;1.10;;;5.50;96.30;;;;;;4978571;28;20194;-83
2022/04/08 13:48:24;;;;;;;1.53;1.00;;;5.30;96.30;;;;;;4979498;28;20180;-82
2022/04/08 13:50:50;;;;;;;2.13;0.93;;;5.20;96.30;;;;;;4995984;28;20197;-81
2022/04/08 13:53:16;;;;;;;2.63;1.00;;;5.10;96.30;;;;;;4972731;28;20245;-84
2022/04/08 13:55:41;;;;;;;2.87;0.80;;;5.20;96.30;;;;;;5001178;28;20201;-84
2022/04/08 13:58:07;;;;;;;1.93;0.87;;;5.20;96.30;;;;;;4986381;28;20182;-83
2022/04/08 14:00:33;;;;;;;1.70;1.10;;;5.30;96.30;;;;;;4979482;28;20190;-81
2022/04/08 14:02:58;;;;;;;2.70;0.90;;;5.30;96.30;;;;;;4989273;28;20864;-81
2022/04/08 14:05:24;;;;;;;2.67;1.00;;;5.30;96.30;;;;;;4975565;28;20185;-82
2022/04/08 14:07:49;;;;;;;2.83;1.00;;;5.30;96.30;;;;;;4976811;28;20273;-82
2022/04/08 14:10:15;;;;;;;1.40;1.10;;;5.40;96.30;;;;;;5001438;28;20186;-81
2022/04/08 14:12:41;;;;;;;2.37;1.30;;;5.50;96.30;;;;;;4994479;28;20274;-82
2022/04/08 14:15:07;;;;;;;4.60;1.30;;;5.60;96.30;;;;;;4997465;28;20182;-82
2022/04/08 14:17:33;;;;;;;2.33;1.10;;;5.50;96.30;;;;;;4989066;28;20218;-81
2022/04/08 14:19:59;;;;;;;3.93;1.13;;;5.60;96.30;;;;;;4973905;28;20504;-81
2022/04/08 14:22:25;;;;;;;5.13;1.13;;;5.70;96.30;;;;;;4979701;28;20201;-82
2022/04/08 14:24:50;;;;;;;3.30;1.20;;;5.70;96.30;;;;;;4971085;28;20177;-82
2022/04/08 14:27:16;;;;;;;2.17;1.10;;;5.70;96.30;;;;;;4972042;28;20445;-82
2022/04/08 14:29:41;;;;;;;1.77;1.23;;;5.40;96.30;;;;;;4995554;28;20170;-82
2022/04/08 14:32:07;;;;;;;1.43;0.80;;;5.00;96.30;;;;;;4989894;28;20404;-82
2022/04/08 14:34:33;;;;;;;1.53;0.90;;;4.90;96.30;;;;;;4969856;28;20179;-82
2022/04/08 14:36:58;;;;;;;6.43;1.37;;;4.80;96.30;;;;;;4970819;28;20201;-82
2022/04/08 14:39:24;;;;;;;2.10;0.90;;;4.60;96.30;;;;;;4979586;28;20177;-81
2022/04/08 14:41:49;;;;;;;1.87;1.23;;;4.40;96.30;;;;;;4993969;28;20281;-81
2022/04/08 14:44:15;;;;;;;1.60;1.10;;;4.60;96.30;;;;;;4976678;28;20578;-80
2022/04/08 14:46:42;;;;;;;2.57;1.10;;;4.60;96.30;;;;;;4977922;28;20245;-81
2022/04/08 14:49:08;;;;;;;1.57;0.70;;;4.70;96.30;;;;;;4994877;28;20166;-82
2022/04/08 14:51:33;;;;;;;2.00;1.00;;;4.70;96.30;;;;;;4976312;28;20503;-82
2022/04/08 14:53:59;;;;;;;3.03;1.10;;;4.70;96.30;;;;;;4975837;28;20429;-83
2022/04/08 14:56:24;;;;;;;3.20;1.20;;;4.60;96.30;;;;;;4995265;28;20213;-82
2022/04/08 14:58:51;;;;;;;6.10;1.77;;;4.60;96.30;;;;;;4977894;28;20208;-81
2022/04/08 15:01:17;;;;;;;3.90;1.00;;;4.50;96.30;;;;;;4994863;28;20178;-82
2022/04/08 15:03:43;;;;;;;3.10;1.07;;;4.40;96.30;;;;;;4980183;28;20517;-82
2022/04/08 15:06:09;;;;;;;1.23;0.90;;;4.20;96.30;;;;;;4980001;28;20209;-82
2022/04/08 15:08:35;;;;;;;1.30;0.87;;;4.20;96.30;;;;;;4994423;28;20425;-81
2022/04/08 15:11:02;;;;;;;2.67;1.00;;;4.10;96.30;;;;;;4994839;28;20265;-81
2022/04/08 15:13:28;;;;;;;3.23;1.17;;;3.90;96.30;;;;;;4977709;28;20185;-80
2022/04/08 15:15:53;;;;;;;3.17;0.90;;;3.90;96.30;;;;;;4977412;28;20484;-79
2022/04/08 15:18:19;;;;;;;1.87;0.90;;;3.90;96.30;;;;;;4977112;28;20182;-80
2022/04/08 15:20:44;;;;;;;2.03;0.90;;;3.90;96.30;;;;;;4977540;28;20189;-80
2022/04/08 15:23:10;;;;;;;2.03;0.87;;;3.80;96.30;;;;;;4994617;28;20618;-79
2022/04/08 15:25:35;;;;;;;1.57;0.90;;;3.70;96.30;;;;;;4977024;28;20202;-79
2022/04/08 15:28:01;;;;;;;1.47;1.13;;;3.60;96.30;;;;;;4995129;28;20700;-79
2022/04/08 15:30:26;;;;;;;2.30;1.70;;;3.50;96.30;;;;;;4995483;28;20729;-80
2022/04/08 15:32:52;;;;;;;3.53;1.43;;;3.60;96.30;;;;;;4978329;28;20224;-79
2022/04/08 15:35:17;;;;;;;2.70;1.50;;;3.50;96.30;;;;;;4995566;28;20178;-80
2022/04/08 15:37:44;;;;;;;2.50;1.60;;;3.60;96.30;;;;;;4995503;28;20654;-80
2022/04/08 15:40:10;;;;;;;25.50;15.50;;;3.60;96.30;;;;;;4995351;28;20173;-79
2022/04/08 15:42:37;;;;;;;4.33;3.60;;;3.60;96.30;;;;;;4993590;28;20424;-80
2022/04/08 15:45:04;;;;;;;1.97;1.13;;;3.60;96.30;;;;;;4994341;28;20409;-80
2022/04/08 15:47:32;;;;;;;1.47;0.90;;;3.60;96.30;;;;;;4975517;28;20440;-80
2022/04/08 15:50:02;;;;;;;1.50;1.27;;;3.60;96.30;;;;;;4972913;28;20512;-80
2022/04/08 15:52:30;;;;;;;2.60;1.20;;;3.60;96.30;;;;;;4985910;28;20432;-79
2022/04/08 15:54:55;;;;;;;1.53;1.17;;;3.60;96.30;;;;;;4976024;28;20456;-79
2022/04/08 15:57:21;;;;;;;1.40;0.90;;;3.70;96.30;;;;;;4993381;28;20492;-80
2022/04/08 15:59:46;;;;;;;2.50;1.27;;;3.70;96.30;;;;;;4993529;28;20186;-81
2022/04/08 16:02:12;;;;;;;1.10;0.83;;;3.60;96.30;;;;;;4993407;28;20177;-81
2022/04/08 16:04:37;;;;;;;1.80;1.50;;;3.50;96.30;;;;;;4993556;28;20173;-80
2022/04/08 16:07:03;;;;;;;1.63;1.23;;;3.50;96.30;;;;;;4975895;28;20723;-79
2022/04/08 16:09:28;;;;;;;2.90;1.60;;;3.50;96.30;;;;;;4989468;28;20661;-78
2022/04/08 16:11:54;;;;;;;1.77;1.10;;;3.50;96.30;;;;;;4983382;28;20181;-78
2022/04/08 16:14:20;;;;;;;3.47;1.90;;;3.40;96.30;;;;;;4966597;28;20296;-79
2022/04/08 16:16:47;;;;;;;2.17;1.00;;;3.40;96.30;;;;;;4970810;28;20264;-77
2022/04/08 16:19:14;;;;;;;1.50;1.10;;;3.40;96.30;;;;;;4973512;28;20166;-77
2022/04/08 16:21:40;;;;;;;1.80;1.03;;;3.30;96.30;;;;;;4989498;28;20424;-78
2022/04/08 16:24:06;;;;;;;1.57;1.07;;;3.30;96.30;;;;;;4977346;28;20476;-78
2022/04/08 16:26:34;;;;;;;1.53;0.80;;;3.20;96.30;;;;;;4976445;28;21022;-78
2022/04/08 16:29:00;;;;;;;3.03;1.63;;;3.20;96.30;;;;;;4994728;28;20173;-77
2022/04/08 16:31:26;;;;;;;3.50;0.80;;;3.20;96.30;;;;;;4981374;28;20419;-78
2022/04/08 16:33:53;;;;;;;2.50;1.30;;;3.10;96.30;;;;;;4975236;28;20185;-80
2022/04/08 17:20:12;;;;;;;1.63;1.00;;;1.70;96.30;;;;;;4975280;28;20800;-76
2022/04/08 17:22:38;;;;;;;1.17;1.00;;;1.60;96.30;;;;;;4976108;28;20413;-77
2022/04/08 17:25:04;;;;;;;2.30;1.03;;;1.60;96.30;;;;;;4958250;28;20176;-73
2022/04/08 17:27:30;;;;;;;1.27;1.10;;;1.50;96.30;;;;;;4975876;28;20194;-74
2022/04/08 17:29:56;;;;;;;1.20;1.07;;;1.50;96.30;;;;;;4994610;28;20417;-75
2022/04/08 17:32:22;;;;;;;1.50;1.07;;;1.40;96.30;;;;;;4976639;28;20178;-75
2022/04/08 17:34:47;;;;;;;1.50;1.20;;;1.40;96.30;;;;;;4995970;28;20784;-73
2022/04/08 17:37:13;;;;;;;1.37;1.10;;;1.40;96.30;;;;;;4995916;28;20464;-75
2022/04/08 17:39:39;;;;;;;1.80;1.20;;;1.30;96.30;;;;;;4978064;28;20170;-76
2022/04/08 17:42:05;;;;;;;1.20;1.10;;;1.30;96.30;;;;;;4994727;28;20699;-77